createdAt,value
2016-11-27T00:00:24.150Z,16.26
2016-11-27T00:01:37.013Z,16.29
2016-11-27T00:02:47.365Z,16.2
2016-11-27T00:04:00.130Z,16.1
2016-11-27T00:05:11.682Z,16.08
2016-11-27T00:06:24.228Z,15.98
2016-11-27T00:07:35.613Z,15.95
2016-11-27T00:08:47.546Z,16.09
2016-11-27T00:09:59.721Z,16.05
2016-11-27T00:11:10.925Z,16.12
2016-11-27T00:12:22.718Z,16.08
2016-11-27T00:13:34.150Z,16.13
2016-11-27T00:14:46.380Z,16.04
2016-11-27T00:15:56.617Z,16.09
2016-11-27T00:17:09.115Z,16.09
2016-11-27T00:18:20.962Z,16.09
2016-11-27T00:19:33.795Z,16.09
2016-11-27T00:20:46.333Z,16.09
2016-11-27T00:21:58.430Z,15.91
2016-11-27T00:23:09.894Z,16.08
2016-11-27T00:24:20.619Z,16.02
2016-11-27T00:25:31.574Z,16.08
2016-11-27T00:26:43.736Z,16.12
2016-11-27T00:27:55.921Z,16.1
2016-11-27T00:29:07.371Z,16.26
2016-11-27T00:30:19.562Z,16.2
2016-11-27T00:31:30.524Z,16.17
2016-11-27T00:32:43.721Z,16.1
2016-11-27T00:33:54.944Z,16.1
2016-11-27T00:35:06.183Z,16.23
2016-11-27T00:36:19.013Z,16.35
2016-11-27T00:37:31.482Z,16.16
2016-11-27T00:38:44.219Z,16.21
2016-11-27T00:39:55.082Z,16.28
2016-11-27T00:41:06.165Z,16.33
2016-11-27T00:42:17.781Z,16.39
2016-11-27T00:43:29.937Z,16.29
2016-11-27T00:44:42.028Z,16.24
2016-11-27T00:45:54.219Z,16.38
2016-11-27T00:47:06.303Z,16.32
2016-11-27T00:48:18.213Z,16.1
2016-11-27T00:49:30.279Z,16.12
2016-11-27T00:50:41.852Z,16.15
2016-11-27T00:51:53.177Z,16.26
2016-11-27T00:53:05.992Z,16.26
2016-11-27T00:54:18.909Z,16.17
2016-11-27T00:55:30.240Z,16.43
2016-11-27T00:56:43.094Z,16.41
2016-11-27T00:57:54.517Z,16.32
2016-11-27T00:59:07.094Z,16.38
2016-11-27T01:00:18.900Z,16.32
2016-11-27T01:01:29.124Z,16.42
2016-11-27T01:02:41.392Z,16.38
2016-11-27T01:03:53.124Z,16.31
2016-11-27T01:05:04.860Z,16.36
2016-11-27T01:06:16.133Z,16.46
2016-11-27T01:07:26.536Z,16.47
2016-11-27T01:08:37.867Z,16.47
2016-11-27T01:09:49.950Z,16.39
2016-11-27T01:11:01.625Z,16.36
2016-11-27T01:12:14.464Z,16.36
2016-11-27T01:13:26.079Z,16.38
2016-11-27T01:14:38.634Z,16.38
2016-11-27T01:15:51.843Z,16.33
2016-11-27T01:17:04.595Z,16.43
2016-11-27T01:18:16.168Z,16.46
2016-11-27T01:19:28.542Z,16.51
2016-11-27T01:20:40.025Z,16.39
2016-11-27T01:21:51.727Z,16.42
2016-11-27T01:23:04.436Z,16.46
2016-11-27T01:24:17.374Z,16.46
2016-11-27T01:25:28.861Z,16.53
2016-11-27T01:26:40.807Z,16.53
2016-11-27T01:27:52.061Z,16.58
2016-11-27T01:29:02.733Z,16.66
2016-11-27T01:30:13.867Z,16.66
2016-11-27T01:31:26.950Z,16.64
2016-11-27T01:32:39.637Z,16.76
2016-11-27T01:33:51.736Z,16.75
2016-11-27T01:35:03.341Z,16.76
2016-11-27T01:36:14.998Z,16.75
2016-11-27T01:37:27.180Z,16.76
2016-11-27T01:38:39.297Z,16.78
2016-11-27T01:39:50.634Z,16.79
2016-11-27T01:41:03.936Z,16.76
2016-11-27T01:42:16.655Z,16.75
2016-11-27T01:43:28.753Z,16.65
2016-11-27T01:44:40.473Z,16.61
2016-11-27T01:45:53.240Z,16.71
2016-11-27T01:47:06.022Z,16.71
2016-11-27T01:48:16.458Z,16.69
2016-11-27T01:49:28.775Z,16.71
2016-11-27T01:50:41.003Z,16.65
2016-11-27T01:51:52.289Z,16.66
2016-11-27T01:53:03.945Z,16.57
2016-11-27T01:54:16.100Z,16.69
2016-11-27T01:55:27.757Z,16.66
2016-11-27T01:56:40.109Z,16.68
2016-11-27T01:57:51.086Z,16.68
2016-11-27T01:59:02.220Z,16.65
2016-11-27T02:00:14.995Z,16.71
2016-11-27T02:01:27.065Z,16.69
2016-11-27T02:02:39.563Z,16.69
2016-11-27T02:03:51.432Z,16.64
2016-11-27T02:05:02.874Z,16.6
2016-11-27T02:06:14.910Z,16.68
2016-11-27T02:07:26.644Z,16.84
2016-11-27T02:08:38.053Z,16.96
2016-11-27T02:09:49.723Z,17.06
2016-11-27T02:11:02.056Z,17.05
2016-11-27T02:12:13.695Z,17.05
2016-11-27T02:13:25.884Z,17.08
2016-11-27T02:14:38.344Z,16.99
2016-11-27T02:15:51.522Z,16.87
2016-11-27T02:17:02.334Z,16.89
2016-11-27T02:18:14.095Z,16.64
2016-11-27T02:19:26.406Z,16.5
2016-11-27T02:20:37.220Z,16.33
2016-11-27T02:21:47.881Z,16.28
2016-11-27T02:22:59.947Z,16.08
2016-11-27T02:24:11.227Z,16.01
2016-11-27T02:25:23.000Z,15.86
2016-11-27T02:26:35.764Z,15.75
2016-11-27T02:27:48.651Z,15.58
2016-11-27T02:29:00.355Z,15.49
2016-11-27T02:30:12.767Z,15.65
2016-11-27T02:31:24.045Z,15.58
2016-11-27T02:32:35.708Z,15.73
2016-11-27T02:33:47.881Z,15.77
2016-11-27T02:35:00.120Z,15.86
2016-11-27T02:36:12.094Z,15.77
2016-11-27T02:37:23.300Z,15.8
2016-11-27T02:38:35.908Z,15.83
2016-11-27T02:39:48.660Z,15.77
2016-11-27T02:41:00.096Z,15.49
2016-11-27T02:42:12.317Z,15.4
2016-11-27T02:43:23.081Z,15.52
2016-11-27T02:44:34.251Z,15.49
2016-11-27T02:45:46.955Z,15.51
2016-11-27T02:46:59.287Z,15.57
2016-11-27T02:48:10.765Z,15.51
2016-11-27T02:49:22.369Z,15.51
2016-11-27T02:50:34.730Z,15.47
2016-11-27T02:51:47.001Z,15.64
2016-11-27T02:52:58.800Z,15.65
2016-11-27T02:54:10.127Z,15.54
2016-11-27T02:55:21.627Z,15.47
2016-11-27T02:56:33.748Z,15.49
2016-11-27T02:57:46.391Z,15.57
2016-11-27T02:58:59.173Z,15.77
2016-11-27T03:00:12.009Z,15.88
2016-11-27T03:01:23.995Z,15.84
2016-11-27T03:02:36.096Z,15.77
2016-11-27T03:03:48.912Z,15.61
2016-11-27T03:05:01.272Z,15.58
2016-11-27T03:06:13.846Z,15.49
2016-11-27T03:07:26.055Z,15.52
2016-11-27T03:08:38.153Z,15.49
2016-11-27T03:09:49.422Z,15.49
2016-11-27T03:11:02.524Z,15.51
2016-11-27T03:12:13.879Z,15.54
2016-11-27T03:13:25.634Z,15.54
2016-11-27T03:14:37.153Z,15.65
2016-11-27T03:15:49.395Z,15.43
2016-11-27T03:17:00.652Z,15.51
2016-11-27T03:18:13.368Z,15.35
2016-11-27T03:19:24.303Z,15.27
2016-11-27T03:20:34.762Z,15.44
2016-11-27T03:21:46.856Z,15.49
2016-11-27T03:22:57.531Z,15.52
2016-11-27T03:24:10.919Z,15.46
2016-11-27T03:25:22.004Z,15.43
2016-11-27T03:26:34.468Z,15.18
2016-11-27T03:27:45.895Z,15.35
2016-11-27T03:28:56.375Z,15.46
2016-11-27T03:30:08.975Z,15.62
2016-11-27T03:31:20.950Z,15.77
2016-11-27T03:32:34.245Z,15.8
2016-11-27T03:33:45.412Z,15.88
2016-11-27T03:34:57.638Z,15.62
2016-11-27T03:36:10.531Z,15.43
2016-11-27T03:37:21.957Z,15.46
2016-11-27T03:38:33.081Z,15.39
2016-11-27T03:39:43.979Z,15.44
2016-11-27T03:40:55.770Z,15.54
2016-11-27T03:42:08.224Z,15.47
2016-11-27T03:43:20.779Z,15.54
2016-11-27T03:44:32.306Z,15.49
2016-11-27T03:45:42.547Z,15.49
2016-11-27T03:46:53.696Z,15.68
2016-11-27T03:48:06.147Z,15.65
2016-11-27T03:49:16.821Z,15.52
2016-11-27T03:50:27.385Z,15.58
2016-11-27T03:51:39.612Z,15.4
2016-11-27T03:52:51.924Z,15.43
2016-11-27T03:54:04.072Z,15.49
2016-11-27T03:55:16.780Z,15.62
2016-11-27T03:56:28.170Z,15.76
2016-11-27T03:57:41.049Z,15.76
2016-11-27T03:58:53.016Z,15.59
2016-11-27T04:00:04.700Z,15.42
2016-11-27T04:01:17.088Z,15.49
2016-11-27T04:02:27.998Z,15.37
2016-11-27T04:03:41.085Z,15.36
2016-11-27T04:04:52.170Z,15.28
2016-11-27T04:06:04.173Z,15.11
2016-11-27T04:07:16.221Z,15.06
2016-11-27T04:08:28.646Z,14.81
2016-11-27T04:09:40.961Z,14.77
2016-11-27T04:10:53.174Z,14.59
2016-11-27T04:12:04.582Z,14.66
2016-11-27T04:13:16.270Z,14.79
2016-11-27T04:14:27.840Z,14.6
2016-11-27T04:15:39.827Z,14.68
2016-11-27T04:16:50.744Z,14.4
2016-11-27T04:18:02.433Z,14.53
2016-11-27T04:19:13.520Z,14.48
2016-11-27T04:20:24.082Z,14.37
2016-11-27T04:21:35.260Z,14.3
2016-11-27T04:22:45.595Z,14.36
2016-11-27T04:23:56.224Z,14.58
2016-11-27T04:25:07.809Z,14.65
2016-11-27T04:26:18.863Z,14.77
2016-11-27T04:27:30.287Z,14.54
2016-11-27T04:28:42.504Z,14.22
2016-11-27T04:29:54.150Z,14.25
2016-11-27T04:31:05.047Z,14.45
2016-11-27T04:32:16.427Z,14.25
2016-11-27T04:33:27.141Z,14.28
2016-11-27T04:34:39.254Z,14
2016-11-27T04:35:51.506Z,14.28
2016-11-27T04:37:03.024Z,14.12
2016-11-27T04:38:15.083Z,14.15
2016-11-27T04:39:27.120Z,14.14
2016-11-27T04:40:38.454Z,14.22
2016-11-27T04:41:50.635Z,14.08
2016-11-27T04:43:02.683Z,14.12
2016-11-27T04:44:14.693Z,14.17
2016-11-27T04:45:28.071Z,14.23
2016-11-27T04:46:39.405Z,14.26
2016-11-27T04:47:50.838Z,14.3
2016-11-27T04:49:02.229Z,14.35
2016-11-27T04:50:13.689Z,14.32
2016-11-27T04:51:26.410Z,14.35
2016-11-27T04:52:37.937Z,14.5
2016-11-27T04:53:50.201Z,14.36
2016-11-27T04:55:02.969Z,14.33
2016-11-27T04:56:13.953Z,14.53
2016-11-27T04:57:26.240Z,14.5
2016-11-27T04:58:39.431Z,14.47
2016-11-27T04:59:51.365Z,14.47
2016-11-27T05:01:03.091Z,14.48
2016-11-27T05:02:14.870Z,14.48
2016-11-27T05:03:27.009Z,14.33
2016-11-27T05:04:38.851Z,14.37
2016-11-27T05:05:49.515Z,14.33
2016-11-27T05:07:00.268Z,14.5
2016-11-27T05:08:11.428Z,14.36
2016-11-27T05:09:23.536Z,14.47
2016-11-27T05:10:35.588Z,14.48
2016-11-27T05:11:47.147Z,14.43
2016-11-27T05:12:59.361Z,14.47
2016-11-27T05:14:11.033Z,14.51
2016-11-27T05:15:21.573Z,14.51
2016-11-27T05:16:33.469Z,14.54
2016-11-27T05:17:45.573Z,14.45
2016-11-27T05:18:57.067Z,14.48
2016-11-27T05:20:08.447Z,14.44
2016-11-27T05:21:20.923Z,14.4
2016-11-27T05:22:33.717Z,14.37
2016-11-27T05:23:45.767Z,14.33
2016-11-27T05:24:57.523Z,14.5
2016-11-27T05:26:08.758Z,14.37
2016-11-27T05:27:21.560Z,14.35
2016-11-27T05:28:33.496Z,14.35
2016-11-27T05:29:45.066Z,14.35
2016-11-27T05:30:57.460Z,14.36
2016-11-27T05:32:10.203Z,14.4
2016-11-27T05:33:22.433Z,14.53
2016-11-27T05:34:35.233Z,14.41
2016-11-27T05:35:47.271Z,14.5
2016-11-27T05:36:58.247Z,14.53
2016-11-27T05:38:10.119Z,14.5
2016-11-27T05:39:22.247Z,14.5
2016-11-27T05:40:33.283Z,14.48
2016-11-27T05:41:45.420Z,14.41
2016-11-27T05:42:57.008Z,14.5
2016-11-27T05:44:10.220Z,14.48
2016-11-27T05:45:21.949Z,14.51
2016-11-27T05:46:33.656Z,14.51
2016-11-27T05:47:44.848Z,14.53
2016-11-27T05:48:57.235Z,14.5
2016-11-27T05:50:07.770Z,14.5
2016-11-27T05:51:20.024Z,14.47
2016-11-27T05:52:30.502Z,14.47
2016-11-27T05:53:43.307Z,14.5
2016-11-27T05:54:55.805Z,14.53
2016-11-27T05:56:07.122Z,14.48
2016-11-27T05:57:19.379Z,14.51
2016-11-27T05:58:32.120Z,14.51
2016-11-27T05:59:44.012Z,14.62
2016-11-27T06:00:55.585Z,14.62
2016-11-27T06:02:06.385Z,14.62
2016-11-27T06:03:17.233Z,14.62
2016-11-27T06:04:29.601Z,14.65
2016-11-27T06:05:42.842Z,14.79
2016-11-27T06:06:55.151Z,14.66
2016-11-27T06:08:07.524Z,14.62
2016-11-27T06:09:17.445Z,14.47
2016-11-27T06:10:28.553Z,14.51
2016-11-27T06:11:39.236Z,14.63
2016-11-27T06:12:50.067Z,14.59
2016-11-27T06:14:00.413Z,14.62
2016-11-27T06:15:12.060Z,14.65
2016-11-27T06:16:24.299Z,14.6
2016-11-27T06:17:36.646Z,14.63
2016-11-27T06:18:49.278Z,14.51
2016-11-27T06:19:59.700Z,14.59
2016-11-27T06:21:11.586Z,14.48
2016-11-27T06:22:22.171Z,14.62
2016-11-27T06:23:33.813Z,14.55
2016-11-27T06:24:45.207Z,14.47
2016-11-27T06:25:56.377Z,14.51
2016-11-27T06:27:07.294Z,14.62
2016-11-27T06:28:19.470Z,14.62
2016-11-27T06:29:30.664Z,14.59
2016-11-27T06:30:42.504Z,14.66
2016-11-27T06:31:54.477Z,14.66
2016-11-27T06:33:07.601Z,14.59
2016-11-27T06:34:19.653Z,14.62
2016-11-27T06:35:32.040Z,14.59
2016-11-27T06:36:43.420Z,14.65
2016-11-27T06:37:55.325Z,14.59
2016-11-27T06:39:06.032Z,14.55
2016-11-27T06:40:17.712Z,14.55
2016-11-27T06:41:29.778Z,14.63
2016-11-27T06:42:41.375Z,14.51
2016-11-27T06:43:53.441Z,14.58
2016-11-27T06:45:05.336Z,14.5
2016-11-27T06:46:16.274Z,14.54
2016-11-27T06:47:28.423Z,14.65
2016-11-27T06:48:39.220Z,14.53
2016-11-27T06:49:51.516Z,14.62
2016-11-27T06:51:03.420Z,14.53
2016-11-27T06:52:15.734Z,14.65
2016-11-27T06:53:27.620Z,14.53
2016-11-27T06:54:39.671Z,14.47
2016-11-27T06:55:52.357Z,14.53
2016-11-27T06:57:04.120Z,14.53
2016-11-27T06:58:17.325Z,14.59
2016-11-27T06:59:27.686Z,14.51
2016-11-27T07:00:39.728Z,14.44
2016-11-27T07:01:51.029Z,14.55
2016-11-27T07:03:04.200Z,14.54
2016-11-27T07:04:16.098Z,14.51
2016-11-27T07:05:28.486Z,14.58
2016-11-27T07:06:39.790Z,14.59
2016-11-27T07:07:51.690Z,14.48
2016-11-27T07:09:04.445Z,14.65
2016-11-27T07:10:16.296Z,14.63
2016-11-27T07:11:29.561Z,14.58
2016-11-27T07:12:42.662Z,14.51
2016-11-27T07:13:55.947Z,14.44
2016-11-27T07:15:07.944Z,14.54
2016-11-27T07:16:19.361Z,14.66
2016-11-27T07:17:31.508Z,14.53
2016-11-27T07:18:44.123Z,14.63
2016-11-27T07:19:55.188Z,14.6
2016-11-27T07:21:06.651Z,14.6
2016-11-27T07:22:17.502Z,14.77
2016-11-27T07:23:28.245Z,14.73
2016-11-27T07:24:39.424Z,14.85
2016-11-27T07:25:52.702Z,14.91
2016-11-27T07:27:05.320Z,14.92
2016-11-27T07:28:17.579Z,15.1
2016-11-27T07:29:29.511Z,14.99
2016-11-27T07:30:41.651Z,14.96
2016-11-27T07:31:52.755Z,15.06
2016-11-27T07:33:03.051Z,15.09
2016-11-27T07:34:15.323Z,14.97
2016-11-27T07:35:27.215Z,14.99
2016-11-27T07:36:38.642Z,15.1
2016-11-27T07:37:51.114Z,15.15
2016-11-27T07:39:03.097Z,15.22
2016-11-27T07:40:14.732Z,14.96
2016-11-27T07:41:26.770Z,14.99
2016-11-27T07:42:39.358Z,15.09
2016-11-27T07:43:51.364Z,15.07
2016-11-27T07:45:02.003Z,15.17
2016-11-27T07:46:13.672Z,15.17
2016-11-27T07:47:25.223Z,15.09
2016-11-27T07:48:38.045Z,15.14
2016-11-27T07:49:48.992Z,15.19
2016-11-27T07:50:59.108Z,15.44
2016-11-27T07:52:12.426Z,15.31
2016-11-27T07:53:24.997Z,15.37
2016-11-27T07:54:37.728Z,15.58
2016-11-27T07:55:48.854Z,15.73
2016-11-27T07:57:00.618Z,15.7
2016-11-27T07:58:13.331Z,15.61
2016-11-27T07:59:25.141Z,15.46
2016-11-27T08:00:38.322Z,15.51
2016-11-27T08:01:51.058Z,15.61
2016-11-27T08:03:01.935Z,15.49
2016-11-27T08:04:13.081Z,15.62
2016-11-27T08:05:23.947Z,15.83
2016-11-27T08:06:36.360Z,15.75
2016-11-27T08:07:47.466Z,15.75
2016-11-27T08:08:59.140Z,15.88
2016-11-27T08:10:10.938Z,15.82
2016-11-27T08:11:24.178Z,16.09
2016-11-27T08:12:35.896Z,15.97
2016-11-27T08:13:48.431Z,15.9
2016-11-27T08:15:00.202Z,15.86
2016-11-27T08:16:11.831Z,15.9
2016-11-27T08:17:24.620Z,15.94
2016-11-27T08:18:35.669Z,16.12
2016-11-27T08:19:48.172Z,16
2016-11-27T08:21:00.846Z,15.9
2016-11-27T08:22:12.739Z,15.73
2016-11-27T08:23:25.183Z,15.7
2016-11-27T08:24:36.676Z,15.59
2016-11-27T08:25:48.051Z,15.7
2016-11-27T08:26:58.988Z,15.58
2016-11-27T08:28:11.600Z,15.44
2016-11-27T08:29:23.507Z,15.84
2016-11-27T08:30:36.181Z,15.83
2016-11-27T08:31:47.384Z,16.01
2016-11-27T08:32:59.489Z,15.9
2016-11-27T08:34:11.245Z,15.94
2016-11-27T08:35:23.787Z,15.67
2016-11-27T08:36:35.762Z,15.77
2016-11-27T08:37:48.507Z,15.68
2016-11-27T08:39:01.193Z,15.77
2016-11-27T08:40:13.362Z,15.88
2016-11-27T08:41:24.416Z,15.92
2016-11-27T08:42:36.516Z,16.12
2016-11-27T08:43:49.279Z,16.17
2016-11-27T08:45:00.807Z,16.12
2016-11-27T08:46:13.961Z,16.01
2016-11-27T08:47:25.825Z,16.26
2016-11-27T08:48:38.037Z,16.42
2016-11-27T08:49:48.823Z,16.38
2016-11-27T08:51:00.195Z,16.23
2016-11-27T08:52:12.380Z,16.5
2016-11-27T08:53:23.530Z,16.84
2016-11-27T08:54:35.619Z,16.6
2016-11-27T08:55:47.246Z,16.32
2016-11-27T08:56:58.771Z,16.36
2016-11-27T08:58:09.500Z,16.54
2016-11-27T08:59:21.350Z,16.66
2016-11-27T09:00:32.631Z,16.66
2016-11-27T09:01:45.458Z,16.64
2016-11-27T09:02:57.143Z,16.35
2016-11-27T09:04:09.172Z,16.05
2016-11-27T09:05:21.321Z,16
2016-11-27T09:06:33.742Z,15.9
2016-11-27T09:07:46.053Z,15.86
2016-11-27T09:08:58.237Z,15.94
2016-11-27T09:10:10.870Z,16
2016-11-27T09:11:22.383Z,15.91
2016-11-27T09:12:33.443Z,15.94
2016-11-27T09:13:45.294Z,15.84
2016-11-27T09:14:57.226Z,16.08
2016-11-27T09:16:08.942Z,16.13
2016-11-27T09:17:19.805Z,16.28
2016-11-27T09:18:32.480Z,16.84
2016-11-27T09:19:43.931Z,17.22
2016-11-27T09:20:56.799Z,17.16
2016-11-27T09:22:07.737Z,17.12
2016-11-27T09:23:18.832Z,17.04
2016-11-27T09:24:29.966Z,16.96
2016-11-27T09:25:41.672Z,16.87
2016-11-27T09:26:53.504Z,16.71
2016-11-27T09:28:04.459Z,16.56
2016-11-27T09:29:15.969Z,16.79
2016-11-27T09:30:28.072Z,16.68
2016-11-27T09:31:40.211Z,17.05
2016-11-27T09:32:52.065Z,16.75
2016-11-27T09:34:03.767Z,16.83
2016-11-27T09:35:14.574Z,16.84
2016-11-27T09:36:26.508Z,17.04
2016-11-27T09:37:39.126Z,16.97
2016-11-27T09:38:50.851Z,16.86
2016-11-27T09:40:02.454Z,17.19
2016-11-27T09:41:12.809Z,17.45
2016-11-27T09:42:24.155Z,17.08
2016-11-27T09:43:35.529Z,16.74
2016-11-27T09:44:47.254Z,16.71
2016-11-27T09:45:58.377Z,16.71
2016-11-27T09:47:09.711Z,16.66
2016-11-27T09:48:21.115Z,16.87
2016-11-27T09:49:33.821Z,17.05
2016-11-27T09:50:44.995Z,17.26
2016-11-27T09:51:57.168Z,16.94
2016-11-27T09:53:09.950Z,17.02
2016-11-27T09:54:21.422Z,17.45
2016-11-27T09:55:33.476Z,17.41
2016-11-27T09:56:45.649Z,17.51
2016-11-27T09:57:56.037Z,17.67
2016-11-27T09:59:08.449Z,17.8
2016-11-27T10:00:19.580Z,17.52
2016-11-27T10:01:30.007Z,17.74
2016-11-27T10:02:42.634Z,17.85
2016-11-27T10:03:54.153Z,17.87
2016-11-27T10:05:05.371Z,17.85
2016-11-27T10:06:16.269Z,17.68
2016-11-27T10:07:27.482Z,17.83
2016-11-27T10:08:38.500Z,17.65
2016-11-27T10:09:51.107Z,17.64
2016-11-27T10:11:02.441Z,17.89
2016-11-27T10:12:14.533Z,17.68
2016-11-27T10:13:26.044Z,17.76
2016-11-27T10:14:37.942Z,17.95
2016-11-27T10:15:49.226Z,17.74
2016-11-27T10:17:00.151Z,17.63
2016-11-27T10:18:11.401Z,17.49
2016-11-27T10:19:23.441Z,17.6
2016-11-27T10:20:34.350Z,17.86
2016-11-27T10:21:45.528Z,17.76
2016-11-27T10:22:56.986Z,17.52
2016-11-27T10:24:07.316Z,17.33
2016-11-27T10:25:19.777Z,17.41
2016-11-27T10:26:29.743Z,17.46
2016-11-27T10:27:41.650Z,17.44
2016-11-27T10:28:52.880Z,17.45
2016-11-27T10:30:05.572Z,17.57
2016-11-27T10:31:16.113Z,17.24
2016-11-27T10:32:28.092Z,17.26
2016-11-27T10:33:40.790Z,17.51
2016-11-27T10:34:52.029Z,17.34
2016-11-27T10:36:04.420Z,17.48
2016-11-27T10:37:16.551Z,17.56
2016-11-27T10:38:28.487Z,17.71
2016-11-27T10:39:41.453Z,17.71
2016-11-27T10:40:53.251Z,17.63
2016-11-27T10:42:06.011Z,17.68
2016-11-27T10:43:17.104Z,17.85
2016-11-27T10:44:27.761Z,17.76
2016-11-27T10:45:38.047Z,17.94
2016-11-27T10:46:50.632Z,17.78
2016-11-27T10:48:01.932Z,17.8
2016-11-27T10:49:12.967Z,17.74
2016-11-27T10:50:23.860Z,17.98
2016-11-27T10:51:35.051Z,18.19
2016-11-27T10:52:47.406Z,18.18
2016-11-27T10:53:57.567Z,17.97
2016-11-27T10:55:08.164Z,17.83
2016-11-27T10:56:20.120Z,17.87
2016-11-27T10:57:31.018Z,17.87
2016-11-27T10:58:42.781Z,18.15
2016-11-27T10:59:55.024Z,18.16
2016-11-27T11:01:07.466Z,17.98
2016-11-27T11:02:19.254Z,18.23
2016-11-27T11:03:29.487Z,18.44
2016-11-27T11:04:40.767Z,18.22
2016-11-27T11:05:52.711Z,17.97
2016-11-27T11:07:03.976Z,18.19
2016-11-27T11:08:15.500Z,18.4
2016-11-27T11:09:27.663Z,18.49
2016-11-27T11:10:39.404Z,18.35
2016-11-27T11:11:51.640Z,18.38
2016-11-27T11:13:02.958Z,18.31
2016-11-27T11:14:13.442Z,18.33
2016-11-27T11:15:25.132Z,18.49
2016-11-27T11:16:36.456Z,18.23
2016-11-27T11:17:47.776Z,18.05
2016-11-27T11:18:58.158Z,18.33
2016-11-27T11:20:08.234Z,18.38
2016-11-27T11:21:18.667Z,18.47
2016-11-27T11:22:30.352Z,18.7
2016-11-27T11:23:41.776Z,18.5
2016-11-27T11:24:53.524Z,18.43
2016-11-27T11:26:05.281Z,18.47
2016-11-27T11:27:16.473Z,18.45
2016-11-27T11:28:28.697Z,18.29
2016-11-27T11:29:40.845Z,18.5
2016-11-27T11:30:51.619Z,18.37
2016-11-27T11:32:03.014Z,18.53
2016-11-27T11:33:14.234Z,18.44
2016-11-27T11:34:27.032Z,18.73
2016-11-27T11:35:38.648Z,18.63
2016-11-27T11:36:49.507Z,18.68
2016-11-27T11:38:01.798Z,18.35
2016-11-27T11:39:13.024Z,18.47
2016-11-27T11:40:24.470Z,18.25
2016-11-27T11:41:37.189Z,18.28
2016-11-27T11:42:48.679Z,18.31
2016-11-27T11:44:01.034Z,18.4
2016-11-27T11:45:13.628Z,18.31
2016-11-27T11:46:25.281Z,18.44
2016-11-27T11:47:37.847Z,18.33
2016-11-27T11:48:48.867Z,18.49
2016-11-27T11:50:00.103Z,18.52
2016-11-27T11:51:12.057Z,18.63
2016-11-27T11:52:23.091Z,18.53
2016-11-27T11:53:35.403Z,18.58
2016-11-27T11:54:46.407Z,18.4
2016-11-27T11:55:57.497Z,18.55
2016-11-27T11:57:09.637Z,18.37
2016-11-27T11:58:21.482Z,18.53
2016-11-27T11:59:33.625Z,18.25
2016-11-27T12:00:45.712Z,18.33
2016-11-27T12:01:58.329Z,18.04
2016-11-27T12:03:09.565Z,18.18
2016-11-27T12:04:20.675Z,18.38
2016-11-27T12:05:31.600Z,18.35
2016-11-27T12:06:43.273Z,18.25
2016-11-27T12:07:54.849Z,18.44
2016-11-27T12:09:07.323Z,18.53
2016-11-27T12:10:19.998Z,18.74
2016-11-27T12:11:31.460Z,18.88
2016-11-27T12:12:42.484Z,18.71
2016-11-27T12:13:53.574Z,18.59
2016-11-27T12:15:03.994Z,18.65
2016-11-27T12:16:16.421Z,18.5
2016-11-27T12:17:28.548Z,17.95
2016-11-27T12:18:39.986Z,17.78
2016-11-27T12:19:51.478Z,17.46
2016-11-27T12:21:04.079Z,17.57
2016-11-27T12:22:15.272Z,17.72
2016-11-27T12:23:26.654Z,17.54
2016-11-27T12:24:39.191Z,17.57
2016-11-27T12:25:49.917Z,17.54
2016-11-27T12:27:00.945Z,17.27
2016-11-27T12:28:12.021Z,16.93
2016-11-27T12:29:23.406Z,17.29
2016-11-27T12:30:35.699Z,17.02
2016-11-27T12:31:47.618Z,17.34
2016-11-27T12:32:59.321Z,17.41
2016-11-27T12:34:12.152Z,17.2
2016-11-27T12:35:23.703Z,17.16
2016-11-27T12:36:36.680Z,17.04
2016-11-27T12:37:48.233Z,17.04
2016-11-27T12:39:00.214Z,17.08
2016-11-27T12:40:10.783Z,17.09
2016-11-27T12:41:22.363Z,16.97
2016-11-27T12:42:33.968Z,17.05
2016-11-27T12:43:45.763Z,16.9
2016-11-27T12:44:56.957Z,17.04
2016-11-27T12:46:08.905Z,16.84
2016-11-27T12:47:20.582Z,16.79
2016-11-27T12:48:32.759Z,16.71
2016-11-27T12:49:44.615Z,16.75
2016-11-27T12:50:56.863Z,16.89
2016-11-27T12:52:09.618Z,16.9
2016-11-27T12:53:22.288Z,16.78
2016-11-27T12:54:34.157Z,16.96
2016-11-27T12:55:46.243Z,16.94
2016-11-27T12:56:57.947Z,16.9
2016-11-27T12:58:09.268Z,16.87
2016-11-27T12:59:21.808Z,16.81
2016-11-27T13:00:33.676Z,16.74
2016-11-27T13:01:45.382Z,16.78
2016-11-27T13:02:56.920Z,16.86
2016-11-27T13:04:08.312Z,17.04
2016-11-27T13:05:20.891Z,16.81
2016-11-27T13:06:33.502Z,16.84
2016-11-27T13:07:44.400Z,16.84
2016-11-27T13:08:55.612Z,16.89
2016-11-27T13:10:06.302Z,16.99
2016-11-27T13:11:17.896Z,16.78
2016-11-27T13:12:28.081Z,16.89
2016-11-27T13:13:40.037Z,16.71
2016-11-27T13:14:50.992Z,16.84
2016-11-27T13:16:02.983Z,16.74
2016-11-27T13:17:14.291Z,16.86
2016-11-27T13:18:26.320Z,16.99
2016-11-27T13:19:38.502Z,16.91
2016-11-27T13:20:50.239Z,16.96
2016-11-27T13:22:00.991Z,16.84
2016-11-27T13:23:12.257Z,16.84
2016-11-27T13:24:23.803Z,16.99
2016-11-27T13:25:34.234Z,17.15
2016-11-27T13:26:46.442Z,17.2
2016-11-27T13:27:58.370Z,17.04
2016-11-27T13:29:09.774Z,17.05
2016-11-27T13:30:21.559Z,17.04
2016-11-27T13:31:33.192Z,17.22
2016-11-27T13:32:44.197Z,17.06
2016-11-27T13:33:55.342Z,17.15
2016-11-27T13:35:07.739Z,16.91
2016-11-27T13:36:19.594Z,16.84
2016-11-27T13:37:31.631Z,16.69
2016-11-27T13:38:43.487Z,16.69
2016-11-27T13:39:55.449Z,16.84
2016-11-27T13:41:07.619Z,16.84
2016-11-27T13:42:18.771Z,16.78
2016-11-27T13:43:30.514Z,16.89
2016-11-27T13:44:42.756Z,16.91
2016-11-27T13:45:54.722Z,16.97
2016-11-27T13:47:07.413Z,17.04
2016-11-27T13:48:19.159Z,17.04
2016-11-27T13:49:31.407Z,17.01
2016-11-27T13:50:42.579Z,16.97
2016-11-27T13:51:53.244Z,16.86
2016-11-27T13:53:05.847Z,17.04
2016-11-27T13:54:18.404Z,16.84
2016-11-27T13:55:29.618Z,16.87
2016-11-27T13:56:42.747Z,17.06
2016-11-27T13:57:55.382Z,16.91
2016-11-27T13:59:06.588Z,17.04
2016-11-27T14:00:17.995Z,16.96
2016-11-27T14:01:30.024Z,16.94
2016-11-27T14:02:42.004Z,16.99
2016-11-27T14:03:52.982Z,17.09
2016-11-27T14:05:04.842Z,17.01
2016-11-27T14:06:16.267Z,16.97
2016-11-27T14:07:27.167Z,16.96
2016-11-27T14:08:38.718Z,17.04
2016-11-27T14:09:50.639Z,16.87
2016-11-27T14:11:02.872Z,16.84
2016-11-27T14:12:15.061Z,16.81
2016-11-27T14:13:27.176Z,16.91
2016-11-27T14:14:39.015Z,16.84
2016-11-27T14:15:50.534Z,16.86
2016-11-27T14:17:02.732Z,17.01
2016-11-27T14:18:12.930Z,16.99
2016-11-27T14:19:24.473Z,16.91
2016-11-27T14:20:36.173Z,16.87
2016-11-27T14:21:47.284Z,16.93
2016-11-27T14:22:58.478Z,16.86
2016-11-27T14:24:10.311Z,16.87
2016-11-27T14:25:20.322Z,16.84
2016-11-27T14:26:32.224Z,17.01
2016-11-27T14:27:44.753Z,16.97
2016-11-27T14:28:57.225Z,16.86
2016-11-27T14:30:08.722Z,16.94
2016-11-27T14:31:19.259Z,16.68
2016-11-27T14:32:30.640Z,16.79
2016-11-27T14:33:41.847Z,16.64
2016-11-27T14:34:54.365Z,16.76
2016-11-27T14:36:06.549Z,16.83
2016-11-27T14:37:18.281Z,16.75
2016-11-27T14:38:29.908Z,16.66
2016-11-27T14:39:42.609Z,16.75
2016-11-27T14:40:54.368Z,16.64
2016-11-27T14:42:06.555Z,16.74
2016-11-27T14:43:18.594Z,16.76
2016-11-27T14:44:29.888Z,16.81
2016-11-27T14:45:41.408Z,16.75
2016-11-27T14:46:52.994Z,16.78
2016-11-27T14:48:05.296Z,16.75
2016-11-27T14:49:18.425Z,16.74
2016-11-27T14:50:30.898Z,16.97
2016-11-27T14:51:43.057Z,16.74
2016-11-27T14:52:54.191Z,16.72
2016-11-27T14:54:05.253Z,16.64
2016-11-27T14:55:14.860Z,16.57
2016-11-27T14:56:28.148Z,16.61
2016-11-27T14:57:38.748Z,16.69
2016-11-27T14:58:49.963Z,16.75
2016-11-27T15:00:03.190Z,16.72
2016-11-27T15:01:15.090Z,16.83
2016-11-27T15:02:26.148Z,16.61
2016-11-27T15:03:37.823Z,16.66
2016-11-27T15:04:50.063Z,16.65
2016-11-27T15:06:01.190Z,16.56
2016-11-27T15:07:13.097Z,16.51
2016-11-27T15:08:25.134Z,16.51
2016-11-27T15:09:36.367Z,16.49
2016-11-27T15:10:48.656Z,16.6
2016-11-27T15:11:59.871Z,16.66
2016-11-27T15:13:12.122Z,16.49
2016-11-27T15:14:24.343Z,16.43
2016-11-27T15:15:35.757Z,16.42
2016-11-27T15:16:46.945Z,16.42
2016-11-27T15:17:58.303Z,16.41
2016-11-27T15:19:11.050Z,16.53
2016-11-27T15:20:21.763Z,16.46
2016-11-27T15:21:33.688Z,16.38
2016-11-27T15:22:45.477Z,16.35
2016-11-27T15:23:56.740Z,16.33
2016-11-27T15:25:07.483Z,16.41
2016-11-27T15:26:18.778Z,16.41
2016-11-27T15:27:30.299Z,16.47